createdAt,value
2018-03-30T00:00:22.929Z,1002.07
2018-03-30T00:01:22.929Z,1002.03
2018-03-30T00:02:22.911Z,1002.03
2018-03-30T00:03:22.906Z,1002.03
2018-03-30T00:04:22.899Z,1002.04
2018-03-30T00:05:22.895Z,1001.98
2018-03-30T00:06:22.895Z,1002.04
2018-03-30T00:07:22.884Z,1002.05
2018-03-30T00:08:22.884Z,1002.03
2018-03-30T00:09:22.870Z,1002.03
2018-03-30T00:10:22.873Z,1002.02
2018-03-30T00:11:22.867Z,1002.07
2018-03-30T00:12:22.859Z,1002.06
2018-03-30T00:13:22.864Z,1002.03
2018-03-30T00:14:22.853Z,1002.04
2018-03-30T00:15:22.840Z,1002.05
2018-03-30T00:16:22.839Z,1002.01
2018-03-30T00:17:22.837Z,1002.00
2018-03-30T00:18:22.841Z,1001.96
2018-03-30T00:19:22.822Z,1001.98
2018-03-30T00:20:22.816Z,1001.96
2018-03-30T00:21:22.819Z,1001.99
2018-03-30T00:22:22.802Z,1001.95
2018-03-30T00:23:22.802Z,1001.97
2018-03-30T00:24:22.806Z,1001.97
2018-03-30T00:25:22.787Z,1001.91
2018-03-30T00:26:22.789Z,1001.94
2018-03-30T00:27:22.784Z,1001.95
2018-03-30T00:28:22.775Z,1001.96
2018-03-30T00:29:22.775Z,1001.93
2018-03-30T00:30:22.776Z,1001.96
2018-03-30T00:31:22.761Z,1001.94
2018-03-30T00:32:22.753Z,1001.90
2018-03-30T00:33:22.828Z,1001.90
2018-03-30T00:34:22.734Z,1001.88
2018-03-30T00:35:22.746Z,1001.87
2018-03-30T00:36:22.739Z,1001.85
2018-03-30T00:37:22.744Z,1001.84
2018-03-30T00:38:22.741Z,1001.88
2018-03-30T00:39:22.719Z,1001.86
2018-03-30T00:40:22.716Z,1001.88
2018-03-30T00:41:22.717Z,1001.85
2018-03-30T00:42:22.705Z,1001.90
2018-03-30T00:43:22.716Z,1001.91
2018-03-30T00:44:22.695Z,1001.85
2018-03-30T00:45:22.689Z,1001.85
2018-03-30T00:46:22.692Z,1001.84
2018-03-30T00:47:22.679Z,1001.82
2018-03-30T00:48:22.683Z,1001.85
2018-03-30T00:49:22.671Z,1001.80
2018-03-30T00:50:22.673Z,1001.82
2018-03-30T00:51:22.660Z,1001.80
2018-03-30T00:52:22.663Z,1001.77
2018-03-30T00:53:22.650Z,1001.80
2018-03-30T00:54:22.654Z,1001.79
2018-03-30T00:55:22.644Z,1001.76
2018-03-30T00:56:22.631Z,1001.74
2018-03-30T00:57:22.635Z,1001.73
2018-03-30T00:58:22.630Z,1001.74
2018-03-30T00:59:22.634Z,1001.70
2018-03-30T01:00:22.616Z,1001.74
2018-03-30T01:01:22.604Z,1001.67
2018-03-30T01:02:22.601Z,1001.69
2018-03-30T01:03:22.596Z,1001.73
2018-03-30T01:04:22.605Z,1001.71
2018-03-30T01:05:22.591Z,1001.72
2018-03-30T01:06:22.596Z,1001.68
2018-03-30T01:07:22.592Z,1001.65
2018-03-30T01:08:22.569Z,1001.68
2018-03-30T01:09:22.573Z,1001.61
2018-03-30T01:10:22.569Z,1001.59
2018-03-30T01:11:22.549Z,1001.58
2018-03-30T01:12:22.551Z,1001.53
2018-03-30T01:13:22.542Z,1001.57
2018-03-30T01:14:22.537Z,1001.55
2018-03-30T01:15:22.532Z,1001.55
2018-03-30T01:16:22.536Z,1001.52
2018-03-30T01:17:22.527Z,1001.50
2018-03-30T01:18:22.530Z,1001.50
2018-03-30T01:19:22.524Z,1001.53
2018-03-30T01:20:22.522Z,1001.48
2018-03-30T01:21:22.516Z,1001.47
2018-03-30T01:22:22.500Z,1001.42
2018-03-30T01:23:22.500Z,1001.41
2018-03-30T01:24:22.495Z,1001.40
2018-03-30T01:25:22.500Z,1001.38
2018-03-30T01:26:22.478Z,1001.39
2018-03-30T01:27:22.482Z,1001.36
2018-03-30T01:28:22.471Z,1001.35
2018-03-30T01:29:22.459Z,1001.36
2018-03-30T01:30:22.466Z,1001.35
2018-03-30T01:31:22.455Z,1001.37
2018-03-30T01:32:22.456Z,1001.35
2018-03-30T01:33:22.442Z,1001.35
2018-03-30T01:34:22.450Z,1001.36
2018-03-30T01:35:22.454Z,1001.32
2018-03-30T01:36:22.437Z,1001.34
2018-03-30T01:37:22.431Z,1001.30
2018-03-30T01:38:22.431Z,1001.30
2018-03-30T01:39:22.428Z,1001.32
2018-03-30T01:40:22.417Z,1001.29
2018-03-30T01:41:22.414Z,1001.32
2018-03-30T01:42:22.393Z,1001.28
2018-03-30T01:43:22.403Z,1001.28
2018-03-30T01:44:22.396Z,1001.28
2018-03-30T01:45:22.385Z,1001.26
2018-03-30T01:46:22.407Z,1001.24
2018-03-30T01:47:22.389Z,1001.23
2018-03-30T01:48:22.373Z,1001.23
2018-03-30T01:49:22.363Z,1001.24
2018-03-30T01:50:22.374Z,1001.25
2018-03-30T01:51:22.373Z,1001.26
2018-03-30T01:52:22.362Z,1001.22
2018-03-30T01:53:22.342Z,1001.25
2018-03-30T01:54:22.352Z,1001.26
2018-03-30T01:55:22.334Z,1001.22
2018-03-30T01:56:22.335Z,1001.24
2018-03-30T01:57:22.328Z,1001.21
2018-03-30T01:58:22.329Z,1001.21
2018-03-30T01:59:22.316Z,1001.19
2018-03-30T02:00:22.315Z,1001.18
2018-03-30T02:01:22.307Z,1001.18
2018-03-30T02:02:22.303Z,1001.18
2018-03-30T02:03:22.301Z,1001.16
2018-03-30T02:04:22.292Z,1001.18
2018-03-30T02:05:22.290Z,1001.15
2018-03-30T02:06:22.290Z,1001.13
2018-03-30T02:07:22.278Z,1001.16
2018-03-30T02:08:22.273Z,1001.18
2018-03-30T02:09:22.265Z,1001.17
2018-03-30T02:10:22.261Z,1001.19
2018-03-30T02:11:22.275Z,1001.19
2018-03-30T02:12:22.251Z,1001.17
2018-03-30T02:13:22.248Z,1001.17
2018-03-30T02:14:22.241Z,1001.15
2018-03-30T02:15:22.236Z,1001.12
2018-03-30T02:16:22.237Z,1001.11
2018-03-30T02:17:22.226Z,1001.08
2018-03-30T02:18:22.220Z,1001.05
2018-03-30T02:19:22.218Z,1001.09
2018-03-30T02:20:22.206Z,1001.05
2018-03-30T02:21:22.210Z,1001.03
2018-03-30T02:22:22.217Z,1001.03
2018-03-30T02:23:22.197Z,1001.05
2018-03-30T02:24:22.202Z,1000.99
2018-03-30T02:25:22.196Z,1000.97
2018-03-30T02:26:22.179Z,1000.95
2018-03-30T02:27:22.181Z,1000.94
2018-03-30T02:28:22.162Z,1000.92
2018-03-30T02:29:22.168Z,1000.93
2018-03-30T02:30:22.154Z,1000.90
2018-03-30T02:31:22.154Z,1000.87
2018-03-30T02:32:22.143Z,1000.89
2018-03-30T02:33:22.147Z,1000.86
2018-03-30T02:34:22.141Z,1000.89
2018-03-30T02:35:22.131Z,1000.88
2018-03-30T02:36:22.118Z,1000.87
2018-03-30T02:37:22.126Z,1000.86
2018-03-30T02:38:22.117Z,1000.84
2018-03-30T02:39:22.125Z,1000.81
2018-03-30T02:40:22.117Z,1000.81
2018-03-30T02:41:22.105Z,1000.86
2018-03-30T02:42:22.096Z,1000.84
2018-03-30T02:43:22.091Z,1000.81
2018-03-30T02:44:22.092Z,1000.85
2018-03-30T02:45:22.088Z,1000.83
2018-03-30T02:46:22.086Z,1000.81
2018-03-30T02:47:22.089Z,1000.80
2018-03-30T02:48:22.069Z,1000.78
2018-03-30T02:49:22.063Z,1000.77
2018-03-30T02:50:22.068Z,1000.79
2018-03-30T02:51:22.054Z,1000.83
2018-03-30T02:52:22.048Z,1000.81
2018-03-30T02:53:22.048Z,1000.81
2018-03-30T02:54:22.053Z,1000.73
2018-03-30T02:55:22.047Z,1000.79
2018-03-30T02:56:22.043Z,1000.77
2018-03-30T02:57:22.022Z,1000.74
2018-03-30T02:58:22.014Z,1000.73
2018-03-30T02:59:22.024Z,1000.74
2018-03-30T03:00:22.015Z,1000.72
2018-03-30T03:01:22.013Z,1000.76
2018-03-30T03:02:22.001Z,1000.72
2018-03-30T03:03:21.998Z,1000.74
2018-03-30T03:04:21.997Z,1000.73
2018-03-30T03:05:21.984Z,1000.74
2018-03-30T03:06:21.977Z,1000.75
2018-03-30T03:07:21.972Z,1000.76
2018-03-30T03:08:21.970Z,1000.74
2018-03-30T03:09:21.960Z,1000.73
2018-03-30T03:10:21.958Z,1000.75
2018-03-30T03:11:21.947Z,1000.78
2018-03-30T03:12:21.955Z,1000.73
2018-03-30T03:13:21.938Z,1000.73
2018-03-30T03:14:21.934Z,1000.74
2018-03-30T03:15:21.938Z,1000.73
2018-03-30T03:16:21.930Z,1000.69
2018-03-30T03:17:21.933Z,1000.72
2018-03-30T03:18:21.919Z,1000.69
2018-03-30T03:19:21.915Z,1000.68
2018-03-30T03:20:21.910Z,1000.68
2018-03-30T03:21:21.908Z,1000.70
2018-03-30T03:22:21.889Z,1000.67
2018-03-30T03:23:21.889Z,1000.69
2018-03-30T03:24:21.888Z,1000.66
2018-03-30T03:25:21.879Z,1000.66
2018-03-30T03:26:21.874Z,1000.65
2018-03-30T03:27:21.874Z,1000.65
2018-03-30T03:28:21.883Z,1000.61
2018-03-30T03:29:21.859Z,1000.66
2018-03-30T03:30:21.851Z,1000.66
2018-03-30T03:31:21.854Z,1000.65
2018-03-30T03:32:21.850Z,1000.65
2018-03-30T03:33:21.843Z,1000.61
2018-03-30T03:34:21.839Z,1000.63
2018-03-30T03:35:21.834Z,1000.59
2018-03-30T03:36:21.827Z,1000.61
2018-03-30T03:37:21.830Z,1000.65
2018-03-30T03:38:21.813Z,1000.59
2018-03-30T03:39:21.824Z,1000.57
2018-03-30T03:40:21.808Z,1000.62
2018-03-30T03:41:21.822Z,1000.58
2018-03-30T03:42:21.803Z,1000.56
2018-03-30T03:43:21.790Z,1000.58
2018-03-30T03:44:21.787Z,1000.55
2018-03-30T03:45:21.787Z,1000.52
2018-03-30T03:46:21.764Z,1000.52
2018-03-30T03:47:21.777Z,1000.57
2018-03-30T03:48:21.769Z,1000.52
2018-03-30T03:49:21.768Z,1000.50
2018-03-30T03:50:21.753Z,1000.53
2018-03-30T03:51:21.757Z,1000.53
2018-03-30T03:52:21.750Z,1000.55
2018-03-30T03:53:21.736Z,1000.53
2018-03-30T03:54:21.738Z,1000.50
2018-03-30T03:55:21.737Z,1000.49
2018-03-30T03:56:21.728Z,1000.49
2018-03-30T03:57:21.713Z,1000.46
2018-03-30T03:58:21.709Z,1000.50
2018-03-30T03:59:21.708Z,1000.44
2018-03-30T04:00:21.704Z,1000.47
2018-03-30T04:01:21.699Z,1000.45
2018-03-30T04:02:21.692Z,1000.45
2018-03-30T04:03:21.694Z,1000.45
2018-03-30T04:04:21.695Z,1000.45
2018-03-30T04:05:21.684Z,1000.43
2018-03-30T04:06:21.677Z,1000.46
2018-03-30T04:07:21.670Z,1000.47
2018-03-30T04:08:21.684Z,1000.50
2018-03-30T04:09:21.664Z,1000.49
2018-03-30T04:10:21.652Z,1000.52
2018-03-30T04:11:21.657Z,1000.55
2018-03-30T04:12:21.638Z,1000.51
2018-03-30T04:13:21.637Z,1000.51
2018-03-30T04:14:21.638Z,1000.51
2018-03-30T04:15:21.630Z,1000.51
2018-03-30T04:16:21.629Z,1000.52
2018-03-30T04:17:21.625Z,1000.49
2018-03-30T04:18:21.615Z,1000.46
2018-03-30T04:19:21.608Z,1000.46
2018-03-30T04:20:21.608Z,1000.45
2018-03-30T04:21:21.604Z,1000.46
2018-03-30T04:22:21.612Z,1000.45
2018-03-30T04:23:21.585Z,1000.45
2018-03-30T04:24:21.580Z,1000.49
2018-03-30T04:25:21.587Z,1000.43
2018-03-30T04:26:21.583Z,1000.44
2018-03-30T04:27:21.574Z,1000.39
2018-03-30T04:28:21.562Z,1000.45
2018-03-30T04:29:21.563Z,1000.38
2018-03-30T04:30:21.568Z,1000.42
2018-03-30T04:31:21.553Z,1000.36
2018-03-30T04:32:21.539Z,1000.36
2018-03-30T04:33:21.538Z,1000.34
2018-03-30T04:34:21.530Z,1000.33
2018-03-30T04:35:21.536Z,1000.31
2018-03-30T04:36:21.516Z,1000.28
2018-03-30T04:37:21.518Z,1000.22
2018-03-30T04:38:21.519Z,1000.27
2018-03-30T04:39:21.508Z,1000.23
2018-03-30T04:40:21.503Z,1000.27
2018-03-30T04:41:21.498Z,1000.31
2018-03-30T04:42:21.491Z,1000.35
2018-03-30T04:43:21.489Z,1000.37
2018-03-30T04:44:21.485Z,1000.35
2018-03-30T04:45:21.477Z,1000.33
2018-03-30T04:46:21.475Z,1000.32
2018-03-30T04:47:21.468Z,1000.32
2018-03-30T04:48:21.460Z,1000.32
2018-03-30T04:49:21.462Z,1000.31
2018-03-30T04:50:21.459Z,1000.33
2018-03-30T04:51:21.450Z,1000.31
2018-03-30T04:52:21.445Z,1000.37
2018-03-30T04:53:21.439Z,1000.38
2018-03-30T04:54:21.433Z,1000.39
2018-03-30T04:55:21.425Z,1000.39
2018-03-30T04:56:21.423Z,1000.37
2018-03-30T04:57:21.423Z,1000.35
2018-03-30T04:58:21.409Z,1000.39
2018-03-30T04:59:21.404Z,1000.36
2018-03-30T05:00:21.399Z,1000.41
2018-03-30T05:01:21.413Z,1000.41
2018-03-30T05:02:21.397Z,1000.39
2018-03-30T05:03:21.390Z,1000.36
2018-03-30T05:04:21.384Z,1000.38
2018-03-30T05:05:21.376Z,1000.41
2018-03-30T05:06:21.373Z,1000.44
2018-03-30T05:07:21.369Z,1000.42
2018-03-30T05:08:21.363Z,1000.44
2018-03-30T05:09:21.364Z,1000.45
2018-03-30T05:10:21.358Z,1000.45
2018-03-30T05:11:21.344Z,1000.43
2018-03-30T05:12:21.343Z,1000.41
2018-03-30T05:13:21.337Z,1000.43
2018-03-30T05:14:21.334Z,1000.48
2018-03-30T05:15:21.331Z,1000.43
2018-03-30T05:16:21.326Z,1000.49
2018-03-30T05:17:21.320Z,1000.49
2018-03-30T05:18:21.305Z,1000.48
2018-03-30T05:19:21.311Z,1000.52
2018-03-30T05:20:21.310Z,1000.54
2018-03-30T05:21:21.307Z,1000.53
2018-03-30T05:22:21.299Z,1000.51
2018-03-30T05:23:21.289Z,1000.49
2018-03-30T05:24:21.290Z,1000.51
2018-03-30T05:25:21.283Z,1000.47
2018-03-30T05:26:21.275Z,1000.42
2018-03-30T05:27:21.280Z,1000.40
2018-03-30T05:28:21.267Z,1000.41
2018-03-30T05:29:21.250Z,1000.39
2018-03-30T05:30:21.256Z,1000.35
2018-03-30T05:31:21.241Z,1000.37
2018-03-30T05:32:21.251Z,1000.33
2018-03-30T05:33:21.234Z,1000.32
2018-03-30T05:34:21.233Z,1000.31
2018-03-30T05:35:21.242Z,1000.31
2018-03-30T05:36:21.220Z,1000.28
2018-03-30T05:37:21.215Z,1000.28
2018-03-30T05:38:21.211Z,1000.30
2018-03-30T05:39:21.219Z,1000.29
2018-03-30T05:40:21.199Z,1000.30
2018-03-30T05:41:21.200Z,1000.29
2018-03-30T05:42:21.189Z,1000.26
2018-03-30T05:43:21.191Z,1000.30
2018-03-30T05:44:21.175Z,1000.30
2018-03-30T05:45:21.174Z,1000.26
2018-03-30T05:46:21.186Z,1000.30
2018-03-30T05:47:21.165Z,1000.25
2018-03-30T05:48:21.159Z,1000.25
2018-03-30T05:49:21.157Z,1000.21
2018-03-30T05:50:21.157Z,1000.25
2018-03-30T05:51:21.149Z,1000.24
2018-03-30T05:52:21.136Z,1000.28
2018-03-30T05:53:21.130Z,1000.27
2018-03-30T05:54:21.139Z,1000.24
2018-03-30T05:55:21.128Z,1000.27
2018-03-30T05:56:21.125Z,1000.24
2018-03-30T05:57:21.116Z,1000.23
2018-03-30T05:58:21.114Z,1000.23
2018-03-30T05:59:21.101Z,1000.20
2018-03-30T06:00:21.100Z,1000.22
2018-03-30T06:01:21.097Z,1000.24
2018-03-30T06:02:21.152Z,1000.23
2018-03-30T06:03:21.083Z,1000.24
2018-03-30T06:04:21.084Z,1000.22
2018-03-30T06:05:21.072Z,1000.21
2018-03-30T06:06:21.074Z,1000.23
2018-03-30T06:07:21.065Z,1000.26
2018-03-30T06:08:21.060Z,1000.21
2018-03-30T06:09:21.057Z,1000.24
2018-03-30T06:10:21.050Z,1000.24
2018-03-30T06:11:21.041Z,1000.25
2018-03-30T06:12:21.040Z,1000.29
2018-03-30T06:13:21.042Z,1000.32
2018-03-30T06:14:21.025Z,1000.31
2018-03-30T06:15:21.027Z,1000.33
2018-03-30T06:16:21.012Z,1000.35
2018-03-30T06:17:21.020Z,1000.32
2018-03-30T06:18:21.011Z,1000.32
2018-03-30T06:19:21.032Z,1000.32
2018-03-30T06:20:20.999Z,1000.29
2018-03-30T06:21:20.991Z,1000.26
2018-03-30T06:22:20.991Z,1000.24
2018-03-30T06:23:20.977Z,1000.20
2018-03-30T06:24:20.996Z,1000.20
2018-03-30T06:25:20.981Z,1000.22
2018-03-30T06:26:20.961Z,1000.22
2018-03-30T06:27:20.963Z,1000.15
2018-03-30T06:28:20.966Z,1000.16
2018-03-30T06:29:20.952Z,1000.17
2018-03-30T06:30:20.965Z,1000.13
2018-03-30T06:31:20.941Z,1000.14
2018-03-30T06:32:20.952Z,1000.16
2018-03-30T06:33:20.935Z,1000.12
2018-03-30T06:34:20.936Z,1000.13
2018-03-30T06:35:20.922Z,1000.13
2018-03-30T06:36:20.917Z,1000.12
2018-03-30T06:37:20.912Z,1000.12
2018-03-30T06:38:20.972Z,1000.12
2018-03-30T06:39:20.903Z,1000.04
2018-03-30T06:40:20.904Z,1000.07
2018-03-30T06:41:20.890Z,1000.03
2018-03-30T06:42:20.885Z,1000.05
2018-03-30T06:43:20.887Z,1000.05
2018-03-30T06:44:20.876Z,1000.03
2018-03-30T06:45:20.883Z,1000.05
2018-03-30T06:46:20.868Z,1000.04
2018-03-30T06:47:20.877Z,1000.03
2018-03-30T06:48:20.862Z,1000.03
2018-03-30T06:49:20.857Z,1000.05
2018-03-30T06:50:20.847Z,1000.03
2018-03-30T06:51:20.840Z,1000.01
2018-03-30T06:52:20.836Z,1000.05
2018-03-30T06:53:20.831Z,1000.05
2018-03-30T06:54:20.831Z,1000.05
2018-03-30T06:55:20.822Z,1000.04
2018-03-30T06:56:20.822Z,1000.04
2018-03-30T06:57:20.820Z,1000.02
2018-03-30T06:58:20.816Z,999.98
2018-03-30T06:59:20.806Z,999.96
2018-03-30T07:00:20.790Z,1000.02
2018-03-30T07:01:20.788Z,1000.00
2018-03-30T07:02:20.787Z,999.94
2018-03-30T07:03:20.785Z,1000.01
2018-03-30T07:04:20.777Z,1000.06
2018-03-30T07:05:20.772Z,1000.01
2018-03-30T07:06:20.766Z,999.98
2018-03-30T07:07:20.773Z,999.93
2018-03-30T07:08:20.772Z,999.96
2018-03-30T07:09:20.753Z,999.97
2018-03-30T07:10:20.755Z,999.94
2018-03-30T07:11:20.748Z,999.91
2018-03-30T07:12:20.743Z,999.92
2018-03-30T07:13:20.737Z,999.94
2018-03-30T07:14:20.732Z,999.89
2018-03-30T07:15:20.726Z,999.88
2018-03-30T07:16:20.721Z,999.88
2018-03-30T07:17:20.724Z,999.83
2018-03-30T07:18:20.727Z,999.84
2018-03-30T07:19:20.711Z,999.82
2018-03-30T07:20:20.707Z,999.79
2018-03-30T07:21:20.688Z,999.78
2018-03-30T07:22:20.692Z,999.79
2018-03-30T07:23:20.686Z,999.82
2018-03-30T07:24:20.708Z,999.80
2018-03-30T07:25:20.670Z,999.76
2018-03-30T07:26:20.682Z,999.79
2018-03-30T07:27:20.668Z,999.74
2018-03-30T07:28:20.657Z,999.72
2018-03-30T07:29:20.657Z,999.74
2018-03-30T07:30:20.648Z,999.71
2018-03-30T07:31:20.659Z,999.68
2018-03-30T07:32:20.662Z,999.71
2018-03-30T07:33:20.642Z,999.70
2018-03-30T07:34:20.633Z,999.68
2018-03-30T07:35:20.646Z,999.73
2018-03-30T07:36:20.630Z,999.69
2018-03-30T07:37:20.619Z,999.73
2018-03-30T07:38:20.623Z,999.74
2018-03-30T07:39:20.616Z,999.75
2018-03-30T07:40:20.612Z,999.72
2018-03-30T07:41:20.629Z,999.75
2018-03-30T07:42:20.619Z,999.74
2018-03-30T07:43:20.604Z,999.73
2018-03-30T07:44:20.585Z,999.72
2018-03-30T07:45:20.593Z,999.74
2018-03-30T07:46:20.577Z,999.76
2018-03-30T07:47:20.571Z,999.72
2018-03-30T07:48:20.568Z,999.72
2018-03-30T07:49:20.596Z,999.64
2018-03-30T07:50:20.561Z,999.67
2018-03-30T07:51:20.548Z,999.61
2018-03-30T07:52:20.560Z,999.68
2018-03-30T07:53:20.552Z,999.59
2018-03-30T07:54:20.543Z,999.61
2018-03-30T07:55:20.548Z,999.62
2018-03-30T07:56:20.538Z,999.64
2018-03-30T07:57:20.542Z,999.61
2018-03-30T07:58:20.525Z,999.58
2018-03-30T07:59:20.525Z,999.57
2018-03-30T08:00:20.514Z,999.57
2018-03-30T08:01:20.544Z,999.56
2018-03-30T08:02:20.518Z,999.46
2018-03-30T08:03:20.502Z,999.51
2018-03-30T08:04:20.510Z,999.42
2018-03-30T08:05:20.504Z,999.47
2018-03-30T08:06:20.484Z,999.40
2018-03-30T08:07:20.479Z,999.34
2018-03-30T08:08:20.485Z,999.36
2018-03-30T08:09:20.464Z,999.33
2018-03-30T08:10:20.459Z,999.34
2018-03-30T08:11:20.466Z,999.35
2018-03-30T08:12:20.457Z,999.29
2018-03-30T08:13:20.461Z,999.32
2018-03-30T08:14:20.450Z,999.30
2018-03-30T08:15:20.442Z,999.27
2018-03-30T08:16:20.442Z,999.32
2018-03-30T08:17:20.441Z,999.30
2018-03-30T08:18:20.438Z,999.31
2018-03-30T08:19:20.424Z,999.24
2018-03-30T08:20:20.438Z,999.21
2018-03-30T08:21:20.417Z,999.21
2018-03-30T08:22:20.413Z,999.15
2018-03-30T08:23:20.404Z,999.17
2018-03-30T08:24:20.402Z,999.15
2018-03-30T08:25:20.404Z,999.13
2018-03-30T08:26:20.402Z,999.13
2018-03-30T08:27:20.388Z,999.09
2018-03-30T08:28:20.385Z,999.11
2018-03-30T08:29:20.390Z,999.13
2018-03-30T08:30:20.384Z,999.07
2018-03-30T08:31:20.376Z,999.09
2018-03-30T08:32:20.383Z,999.12
2018-03-30T08:33:20.371Z,999.12
2018-03-30T08:34:20.373Z,999.11
2018-03-30T08:35:20.351Z,999.13
2018-03-30T08:36:20.349Z,999.08
2018-03-30T08:37:20.345Z,999.09
2018-03-30T08:38:20.328Z,999.07
2018-03-30T08:39:20.353Z,999.04
2018-03-30T08:40:20.338Z,999.08
2018-03-30T08:41:20.318Z,999.05
2018-03-30T08:42:20.328Z,999.07
2018-03-30T08:43:20.332Z,999.05
2018-03-30T08:44:20.333Z,999.07
2018-03-30T08:45:20.309Z,999.06
2018-03-30T08:46:20.338Z,999.03
2018-03-30T08:47:20.300Z,999.03
2018-03-30T08:48:20.293Z,999.09
2018-03-30T08:49:20.305Z,999.00
2018-03-30T08:50:20.290Z,998.96
2018-03-30T08:51:20.286Z,998.99
2018-03-30T08:52:20.292Z,998.95
2018-03-30T08:53:20.270Z,998.94
2018-03-30T08:54:20.284Z,998.96
2018-03-30T08:55:20.281Z,998.88
2018-03-30T08:56:20.259Z,998.88
2018-03-30T08:57:20.250Z,998.81
2018-03-30T08:58:20.254Z,998.83
2018-03-30T08:59:20.256Z,998.79
2018-03-30T09:00:20.257Z,998.78
2018-03-30T09:01:20.256Z,998.75
2018-03-30T09:02:20.233Z,998.73
2018-03-30T09:03:20.235Z,998.73
2018-03-30T09:04:20.223Z,998.76
2018-03-30T09:05:20.215Z,998.73
2018-03-30T09:06:20.227Z,998.69
2018-03-30T09:07:20.219Z,998.70
2018-03-30T09:08:20.203Z,998.75
2018-03-30T09:09:20.203Z,998.74
2018-03-30T09:10:20.217Z,998.67
2018-03-30T09:11:20.218Z,998.64
2018-03-30T09:12:20.198Z,998.65
2018-03-30T09:13:20.189Z,998.63
2018-03-30T09:14:20.177Z,998.65
2018-03-30T09:15:20.172Z,998.65
2018-03-30T09:16:20.189Z,998.65
2018-03-30T09:17:20.171Z,998.64
2018-03-30T09:18:20.168Z,998.59
2018-03-30T09:19:20.154Z,998.60
2018-03-30T09:20:20.155Z,998.57
2018-03-30T09:21:20.166Z,998.57
2018-03-30T09:22:20.155Z,998.52
2018-03-30T09:23:20.154Z,998.54
2018-03-30T09:24:20.139Z,998.50
2018-03-30T09:25:20.140Z,998.53
2018-03-30T09:26:20.129Z,998.47
2018-03-30T09:27:20.134Z,998.52
2018-03-30T09:28:20.121Z,998.51
2018-03-30T09:29:20.114Z,998.43
2018-03-30T09:30:20.111Z,998.41
2018-03-30T09:31:20.104Z,998.47
2018-03-30T09:32:20.100Z,998.37
2018-03-30T09:33:20.094Z,998.34
2018-03-30T09:34:20.108Z,998.34
2018-03-30T09:35:20.097Z,998.37
2018-03-30T09:36:20.083Z,998.31
2018-03-30T09:37:20.085Z,998.29
2018-03-30T09:38:20.079Z,998.32
2018-03-30T09:39:20.082Z,998.25
2018-03-30T09:40:20.071Z,998.30
2018-03-30T09:41:20.066Z,998.25
2018-03-30T09:42:20.054Z,998.23
2018-03-30T09:43:20.050Z,998.29
2018-03-30T09:44:20.076Z,998.22
2018-03-30T09:45:20.058Z,998.27
2018-03-30T09:46:20.062Z,998.29
2018-03-30T09:47:20.048Z,998.25
2018-03-30T09:48:20.034Z,998.27
2018-03-30T09:49:20.032Z,998.20
2018-03-30T09:50:20.017Z,998.25
2018-03-30T09:51:20.046Z,998.18
2018-03-30T09:52:20.012Z,998.20
2018-03-30T09:53:20.036Z,998.29
2018-03-30T09:54:20.022Z,998.16
2018-03-30T09:55:20.002Z,998.19
2018-03-30T09:56:20.001Z,998.13
2018-03-30T09:57:19.995Z,998.13
2018-03-30T09:58:19.995Z,998.17
2018-03-30T09:59:20.006Z,998.10
2018-03-30T10:00:19.996Z,998.09
2018-03-30T10:01:19.987Z,998.08
2018-03-30T10:02:19.986Z,998.03
2018-03-30T10:03:19.970Z,998.06
2018-03-30T10:04:19.976Z,997.99
2018-03-30T10:05:19.969Z,997.99
2018-03-30T10:06:19.966Z,998.02
2018-03-30T10:07:19.962Z,998.06
2018-03-30T10:08:19.950Z,997.97
2018-03-30T10:09:19.955Z,998.14
2018-03-30T10:10:19.932Z,998.10
2018-03-30T10:11:19.940Z,998.07
2018-03-30T10:12:19.935Z,998.03
2018-03-30T10:13:19.940Z,997.99
2018-03-30T10:14:19.921Z,997.93
2018-03-30T10:15:19.926Z,997.93
2018-03-30T10:16:19.914Z,997.94
2018-03-30T10:17:19.914Z,997.91
2018-03-30T10:18:19.909Z,997.94
2018-03-30T10:19:19.895Z,997.97
2018-03-30T10:20:19.895Z,997.93
2018-03-30T10:21:19.895Z,997.91
2018-03-30T10:22:19.882Z,997.87
2018-03-30T10:23:19.881Z,997.89
2018-03-30T10:24:19.906Z,997.74
2018-03-30T10:25:19.906Z,997.79
2018-03-30T10:26:19.872Z,997.74
2018-03-30T10:27:19.862Z,997.69
2018-03-30T10:28:19.862Z,997.66
2018-03-30T10:29:19.867Z,997.66
2018-03-30T10:30:19.863Z,997.54
2018-03-30T10:31:19.863Z,997.61
2018-03-30T10:32:19.851Z,997.66
2018-03-30T10:33:19.865Z,997.49
2018-03-30T10:34:19.839Z,997.51
2018-03-30T10:35:19.839Z,997.54
2018-03-30T10:36:19.829Z,997.47
2018-03-30T10:37:19.823Z,997.45
2018-03-30T10:38:19.820Z,997.41
2018-03-30T10:39:19.817Z,997.41
2018-03-30T10:40:19.804Z,997.38
2018-03-30T10:41:19.831Z,997.29
2018-03-30T10:42:19.805Z,997.31
2018-03-30T10:43:19.801Z,997.26
2018-03-30T10:44:19.803Z,997.21
2018-03-30T10:45:19.805Z,997.18
2018-03-30T10:46:19.774Z,997.12
2018-03-30T10:47:19.796Z,997.16
2018-03-30T10:48:19.777Z,997.15
2018-03-30T10:49:19.790Z,997.09
2018-03-30T10:50:19.797Z,996.88
2018-03-30T10:51:19.786Z,997.03
2018-03-30T10:52:19.764Z,997.01
2018-03-30T10:53:19.756Z,996.90
2018-03-30T10:54:19.760Z,996.93
2018-03-30T10:55:19.764Z,996.88
2018-03-30T10:56:19.745Z,996.94
2018-03-30T10:57:19.807Z,996.91
2018-03-30T10:58:19.728Z,996.71
2018-03-30T10:59:19.732Z,996.75
2018-03-30T11:00:19.739Z,996.62
2018-03-30T11:01:19.742Z,996.68
2018-03-30T11:02:19.718Z,996.66
2018-03-30T11:03:19.713Z,996.61
2018-03-30T11:04:19.706Z,996.59
2018-03-30T11:05:19.702Z,996.54
2018-03-30T11:06:19.713Z,996.51
2018-03-30T11:07:19.699Z,996.47
2018-03-30T11:08:19.687Z,996.40
2018-03-30T11:09:19.800Z,996.33
2018-03-30T11:10:19.692Z,996.32
2018-03-30T11:11:19.690Z,996.25
2018-03-30T11:12:19.697Z,996.20
2018-03-30T11:13:19.678Z,996.13
2018-03-30T11:14:19.671Z,996.13
2018-03-30T11:15:19.673Z,996.11
2018-03-30T11:16:19.665Z,996.09
2018-03-30T11:17:19.648Z,996.06
2018-03-30T11:18:19.666Z,996.02
2018-03-30T11:19:19.647Z,996.00
2018-03-30T11:20:19.666Z,995.99
2018-03-30T11:21:19.642Z,995.93
2018-03-30T11:22:19.681Z,995.94
2018-03-30T11:23:19.645Z,995.96
2018-03-30T11:24:19.650Z,995.92
2018-03-30T11:25:19.622Z,995.81
2018-03-30T11:26:19.619Z,995.85
2018-03-30T11:27:19.644Z,995.84
2018-03-30T11:28:19.605Z,995.85
2018-03-30T11:29:19.603Z,995.81
2018-03-30T11:30:19.620Z,995.87
2018-03-30T11:31:19.602Z,995.87
2018-03-30T11:32:19.607Z,995.77
2018-03-30T11:33:19.578Z,995.83
2018-03-30T11:34:19.577Z,995.80
2018-03-30T11:35:19.582Z,995.80
2018-03-30T11:36:19.580Z,995.76
2018-03-30T11:37:19.565Z,995.86
2018-03-30T11:38:19.568Z,995.90
2018-03-30T11:39:19.563Z,995.82
2018-03-30T11:40:19.561Z,995.88
2018-03-30T11:41:19.582Z,995.91
2018-03-30T11:42:19.557Z,995.97
2018-03-30T11:43:19.558Z,995.98
2018-03-30T11:44:19.524Z,995.98
2018-03-30T11:45:19.533Z,996.00
2018-03-30T11:46:19.541Z,995.95
2018-03-30T11:47:19.542Z,996.01
2018-03-30T11:48:19.531Z,995.93
2018-03-30T11:49:19.523Z,995.87
2018-03-30T11:50:19.541Z,995.85
2018-03-30T11:51:19.508Z,995.85
2018-03-30T11:52:19.504Z,995.92
2018-03-30T11:53:19.492Z,995.87
2018-03-30T11:54:19.500Z,995.88
2018-03-30T11:55:19.502Z,995.88
2018-03-30T11:56:19.494Z,995.85
2018-03-30T11:57:19.579Z,995.78
2018-03-30T11:58:19.474Z,995.85
2018-03-30T11:59:19.478Z,995.81
2018-03-30T12:00:19.469Z,995.82
2018-03-30T12:01:19.467Z,995.79
2018-03-30T12:02:19.472Z,995.83
2018-03-30T12:03:19.460Z,995.86
2018-03-30T12:04:19.445Z,995.85
2018-03-30T12:05:19.450Z,995.90
2018-03-30T12:06:19.455Z,995.88
2018-03-30T12:07:19.442Z,995.78
2018-03-30T12:08:19.432Z,995.86
2018-03-30T12:09:19.439Z,995.79
2018-03-30T12:10:19.437Z,995.82
2018-03-30T12:11:19.436Z,995.84
2018-03-30T12:12:19.420Z,995.86
2018-03-30T12:13:19.412Z,995.83
2018-03-30T12:14:19.412Z,995.75
2018-03-30T12:15:19.406Z,995.76